This is the latest recevied weather packets stored in our database for station/object DO1SN-13. If no packets are shown the sender has not sent any weather packets the latest 10 day(s).
| Time | Temp. | Humidity | Pressure | Rain* | Wind** | Luminosity | Snow |
|---|---|---|---|---|---|---|---|
| 1788591883 | 23.89° C | - | 1024.2 hPa | 0 mm | - | - | - |
| 1788591518 | 23.89° C | - | 1024.2 hPa | 0 mm | - | - | - |
| 1788591154 | 22.78° C | - | 1024.1 hPa | 0 mm | - | - | - |
| 1788590790 | 22.78° C | - | 1024.2 hPa | 0 mm | - | - | - |
| 1788590426 | 21.67° C | - | 1024.1 hPa | 0 mm | - | - | - |
| 1788590062 | 22.22° C | - | 1024 hPa | 0 mm | - | - | - |
| 1788589698 | 22.22° C | - | 1024 hPa | 0 mm | - | - | - |
| 1788589334 | 22.22° C | - | 1024 hPa | 0 mm | - | - | - |
| 1788588970 | 22.22° C | - | 1023.9 hPa | 0 mm | - | - | - |
| 1788587513 | 20° C | - | 1023.5 hPa | 0 mm | - | - | - |
| 1788587513 | 20° C | - | 1023.5 hPa | 0 mm | - | - | - |
| 1788587149 | 20.56° C | - | 1023.6 hPa | 0 mm | - | - | - |
| 1788586420 | 20° C | - | 1023.5 hPa | 0 mm | - | - | - |
| 1788586056 | 20° C | - | 1023.6 hPa | 0 mm | - | - | - |
| 1788585692 | 18.33° C | - | 1023.3 hPa | 0 mm | - | - | - |
| 1788564570 | 26.11° C | - | 1019.8 hPa | 0 mm | - | - | - |
| 1788563842 | 26.11° C | - | 1019.5 hPa | 0 mm | - | - | - |
| 1788563478 | 26.67° C | - | 1019.4 hPa | 0 mm | - | - | - |
| 1788561657 | 26.67° C | - | 1018.9 hPa | 0 mm | - | - | - |
| 1788561657 | 26.67° C | - | 1018.9 hPa | 0 mm | - | - | - |
| 1788560200 | 26.11° C | - | 1018.8 hPa | 0 mm | - | - | - |
| 1788560200 | 26.11° C | - | 1018.8 hPa | 0 mm | - | - | - |
| 1788559836 | 26.67° C | - | 1018.7 hPa | 0 mm | - | - | - |
| 1788559472 | 26.67° C | - | 1018.7 hPa | 0 mm | - | - | - |
| 1788557651 | 27.78° C | - | 1018.4 hPa | 0 mm | - | - | - |
* Rain latest hour (hover to see other rain measurements)
** Current wind speed in m/s (hover to see current wind gust speed)